Ludowici, GA (31316)

1:25 AM EDT en Agosto 28, 2015 (GMT -0400)
Elim / Davenport Acres - Long County | | Change Station
CLOSE
Current Station
Estación meteorológica personal
Location: Ludowici, GA
Altura: 89 ft
Estaciones meteorológicas cercanas

Alt 89 ft 31.79 °N, 81.69 °W | Updated 22 seconds ago

Parcialmente nublado
Parcialmente nublado
74.5 ° F
Sensación térmica 71 ° F
N
0.0
Viento Variable Viento desde ENE
Gusts 0.0 mph

Hoy
Alta -- | Baja -- ° F
--% Posibilidad de precipitaciones
Ayer
Alta -- | Baja -- ° F
Precip. -- pul
6:59 AM 7:56 PM
Gibosa creciente, 96% visible
Presión 30.02 pul
Visibilidad 10.0 Millas
Nubes Nubes dispersas 8000 ft
Índice de calor 71 ° F
Punto de rocío 74 ° F
Humedad 100%
Precipitaciones 0.00 pul
Espesor de la nieve No disponible.
UV 0 de una escala de 12
Polen 5.20 de una escala de 12
Calidad del aire No disponible.
Flu Activity No disponible.
METAR KJES 280515Z AUTO 05003KT 10SM SCT080 25/23 A3002 RMK AO2
Presión 30.02 pul
Visibilidad 10.0 Millas
Nubes Nubes dispersas 8000 ft
Índice de calor 71 ° F
Punto de rocío 74 ° F
Humedad 100%
Precipitaciones 0.00 pul
Espesor de la nieve No disponible.
UV 0 de una escala de 12
Polen 5.20 de una escala de 12
Calidad del aire No disponible.
Flu Activity No disponible.
METAR KJES 280515Z AUTO 05003KT 10SM SCT080 25/23 A3002 RMK AO2
Tropical Storm Erika remains unorganized as it travels through the northeast Caribbean Sea. Puerto Rico could receive over a foot of rain from Erika, which could help the ongoing drought but could also produce dangerous mudslides. Erika is not forecast to reach hurricane strength until Monday when it curves northward along the east coast of Florida. Follow the live blog

10-Day Weather Forecast

×

Almanac

Astronomía

Aug. 28, 2015 Salida Puesta
Hora real
Crepúsculo civil
Crepúsculo náutico
Crepúsculo astronómico
Luna
Horas de luz
Horas de luz
Tomorrow will be .
, % of the Moon is Illuminated

Extremos de hoy

Máximos del estado Bajos del estado

Community

WunderPhotos

Upload Photos

1,850,340 ¡fotos cargadas!

WunderBlogs® & News

Nearby

Calidad del aire

  Calidad del aire Índice AQ Contaminante
Not available.

Grosos de nieve

Estación Profundido Altura

Actividad de terremotos

Ciudad Distance Mag. Tiempo y dato
Magnitud mínima muestra es 2,5.

Temperaturas de aguas costeras

Lugar Temperatura

Stations

Estaciones meteorológicas cercanas

Ubicación de la estación Temp. Vientos helados Punto de rocío Humedad Viento Precip. Alt Actualizado Tipo